Time;durP1;ratioP1;P1;durP2;ratioP2;P2;SDS_P1;SDS_P2;PMS_P1;PMS_P2;Temp;Humidity;BMP_temperature;BMP_pressure;BME280_temperature;BME280_humidity;BME280_pressure;Samples;Min_cycle;Max_cycle;Signal;HPM_P1;HPM_P2
2022/03/14 00:03:58;;;;;;;49.13;33.40;;;;;;;2.87;52.88;101077.95;2630851;90;21356;-68
2022/03/14 00:08:01;;;;;;;56.50;34.30;;;;;;;2.83;52.96;101079.81;2630945;90;21136;-67
2022/03/14 00:12:05;;;;;;;49.03;32.13;;;;;;;2.78;53.00;101076.52;2630623;90;21093;-67
2022/03/14 00:16:08;;;;;;;59.85;34.43;;;;;;;2.73;53.11;101077.14;2630922;90;21526;-67
2022/03/14 00:20:12;;;;;;;54.93;33.98;;;;;;;2.70;53.18;101073.32;2630630;90;21117;-67
2022/03/14 00:24:14;;;;;;;58.95;33.98;;;;;;;2.64;52.87;101078.77;2630788;90;21086;-67
2022/03/14 00:28:15;;;;;;;46.53;32.65;;;;;;;2.67;52.99;101078.22;2630916;90;21069;-67
2022/03/14 00:32:17;;;;;;;54.33;31.70;;;;;;;2.66;53.82;101080.45;2627026;90;21478;-67
2022/03/14 00:36:25;;;;;;;48.95;29.45;;;;;;;2.65;53.61;101077.42;2619440;90;21070;-67
2022/03/14 00:40:25;;;;;;;;;;;;;;;2.58;53.50;101074.63;2621506;90;21098;-67
2022/03/14 00:44:27;;;;;;;47.98;30.45;;;;;;;2.58;53.48;101073.31;2613002;91;20137;-67
2022/03/14 00:48:32;;;;;;;54.67;34.70;;;;;;;2.58;53.52;101072.00;2601972;91;21597;-67
2022/03/14 00:52:33;;;;;;;52.33;33.63;;;;;;;2.54;53.58;101075.17;2602251;91;21077;-67
2022/03/14 00:56:35;;;;;;;59.35;32.23;;;;;;;2.51;53.48;101070.48;2602042;91;21121;-67
2022/03/14 01:00:38;;;;;;;65.80;38.25;;;;;;;2.51;53.74;101070.48;2601492;91;21641;-67
2022/03/14 01:04:39;;;;;;;55.60;34.20;;;;;;;2.41;53.99;101083.95;2601990;91;22015;-67
2022/03/14 01:08:41;;;;;;;70.35;34.63;;;;;;;2.37;54.31;101092.85;2616811;88;21093;-67
2022/03/14 01:12:42;;;;;;;63.55;36.33;;;;;;;2.26;54.62;101093.22;2602060;91;21105;-67
2022/03/14 01:16:45;;;;;;;51.37;34.18;;;;;;;2.22;54.48;101093.38;2601327;91;21094;-68
2022/03/14 01:20:46;;;;;;;55.03;34.13;;;;;;;2.25;54.44;101093.27;2602188;91;21109;-67
2022/03/14 01:24:48;;;;;;;61.95;35.65;;;;;;;2.28;54.24;101090.53;2601642;91;21133;-68
2022/03/14 01:28:50;;;;;;;60.98;35.92;;;;;;;2.26;54.33;101097.60;2602067;91;21622;-68
2022/03/14 01:32:52;;;;;;;60.95;36.95;;;;;;;2.21;54.52;101094.28;2601634;91;21046;-67
2022/03/14 01:36:53;;;;;;;62.78;35.48;;;;;;;2.15;55.04;101097.97;2602125;91;21113;-67
2022/03/14 01:40:55;;;;;;;55.65;34.50;;;;;;;2.17;54.60;101107.11;2602146;91;21417;-67
2022/03/14 01:44:57;;;;;;;67.65;32.88;;;;;;;2.13;54.60;101101.94;2602315;91;21105;-67
2022/03/14 01:49:00;;;;;;;56.75;35.48;;;;;;;1.95;55.34;101107.80;2601735;91;21712;-67
2022/03/14 01:53:01;;;;;;;61.02;36.28;;;;;;;1.82;55.77;101108.66;2601368;91;21648;-67
2022/03/14 01:57:05;;;;;;;56.65;36.15;;;;;;;1.78;55.90;101112.29;2602024;91;21133;-68
2022/03/14 02:01:07;;;;;;;54.83;33.45;;;;;;;1.62;56.81;101113.23;2601937;91;21109;-67
2022/03/14 02:05:12;;;;;;;66.80;36.68;;;;;;;1.62;56.69;101115.86;2602081;91;21062;-67
2022/03/14 02:09:13;;;;;;;53.55;31.70;;;;;;;1.67;56.41;101120.50;2601309;90;21081;-67
2022/03/14 02:13:15;;;;;;;56.83;37.67;;;;;;;1.63;57.38;101121.51;2601927;91;21093;-67
2022/03/14 02:17:22;;;;;;;76.25;40.67;;;;;;;1.54;58.00;101116.94;2601250;91;21066;-67
2022/03/14 02:21:24;;;;;;;62.43;37.53;;;;;;;1.41;58.80;101120.86;2633259;90;21078;-68
2022/03/14 02:25:25;;;;;;;68.52;38.75;;;;;;;1.35;58.81;101121.02;2641301;90;21603;-67
2022/03/14 02:29:27;;;;;;;65.20;35.65;;;;;;;1.25;59.36;101117.81;2640910;90;21058;-68
2022/03/14 02:33:28;;;;;;;62.53;35.35;;;;;;;1.20;59.51;101122.34;2640149;89;21106;-68
2022/03/14 02:37:30;;;;;;;65.37;38.13;;;;;;;1.19;59.78;101118.87;2640892;90;21146;-67
2022/03/14 02:41:32;;;;;;;65.62;39.10;;;;;;;1.08;60.40;101117.88;2640472;90;21097;-68
2022/03/14 02:45:34;;;;;;;72.78;39.10;;;;;;;0.94;60.95;101114.79;2640668;90;21590;-68
2022/03/14 02:49:36;;;;;;;68.83;37.80;;;;;;;0.81;61.18;101118.21;2640616;90;21594;-67
2022/03/14 02:53:39;;;;;;;64.07;37.65;;;;;;;0.75;61.58;101121.85;2640898;90;21074;-68
2022/03/14 02:57:40;;;;;;;62.67;39.60;;;;;;;0.73;61.74;101124.96;2640522;89;21122;-67
2022/03/14 03:01:42;;;;;;;70.50;43.68;;;;;;;0.69;61.83;101128.58;2641308;90;21464;-67
2022/03/14 03:05:43;;;;;;;67.22;38.42;;;;;;;0.71;61.95;101125.45;2640888;89;21118;-67
2022/03/14 03:09:46;;;;;;;63.17;36.98;;;;;;;0.72;61.69;101123.25;2640616;90;21062;-67
2022/03/14 03:13:50;;;;;;;58.87;38.80;;;;;;;0.76;61.12;101118.33;2640815;90;21086;-68
2022/03/14 03:17:53;;;;;;;66.42;39.48;;;;;;;0.76;61.30;101114.83;2641210;90;21708;-67
2022/03/14 03:21:54;;;;;;;72.67;41.63;;;;;;;0.74;61.76;101124.06;2640347;90;21147;-68
2022/03/14 03:25:56;;;;;;;68.83;41.35;;;;;;;0.60;62.78;101126.19;2640664;90;21078;-68
2022/03/14 03:29:59;;;;;;;70.15;42.27;;;;;;;0.54;63.08;101123.27;2640797;90;21094;-67
2022/03/14 03:34:01;;;;;;;68.45;40.17;;;;;;;0.50;63.14;101132.11;2640412;89;21340;-68
2022/03/14 03:38:03;;;;;;;69.75;41.68;;;;;;;0.52;62.85;101140.35;2640847;90;21107;-68
2022/03/14 03:42:05;;;;;;;59.15;36.45;;;;;;;0.58;62.56;101151.55;2640121;90;21096;-67
2022/03/14 03:46:07;;;;;;;72.03;41.25;;;;;;;0.52;62.69;101160.42;2649559;88;21054;-67
2022/03/14 03:50:10;;;;;;;62.98;37.17;;;;;;;0.51;63.04;101159.58;2684989;88;21066;-67
2022/03/14 03:54:12;;;;;;;70.05;36.65;;;;;;;0.47;63.33;101161.00;2685476;88;21618;-68
2022/03/14 03:58:13;;;;;;;76.85;41.10;;;;;;;0.45;63.17;101169.34;2685443;88;21178;-68
2022/03/14 04:02:18;;;;;;;64.60;40.95;;;;;;;0.50;62.57;101159.61;2654634;88;21578;-68
2022/03/14 04:06:20;;;;;;;74.55;41.20;;;;;;;0.61;62.23;101161.95;2632030;88;21078;-66
2022/03/14 04:10:22;;;;;;;65.47;41.20;;;;;;;0.74;61.64;101159.86;2648800;88;21109;-66
2022/03/14 04:14:24;;;;;;;74.05;39.92;;;;;;;0.88;61.04;101160.34;2643106;90;21053;-65
2022/03/14 04:18:25;;;;;;;71.07;39.67;;;;;;;1.03;60.47;101162.14;2634133;88;21101;-65
2022/03/14 04:22:28;;;;;;;88.87;49.75;;;;;;;1.11;60.36;101163.65;2628158;88;21081;-65
2022/03/14 04:26:29;;;;;;;81.00;47.13;;;;;;;1.12;60.33;101160.13;2639616;88;21081;-67
2022/03/14 04:30:31;;;;;;;77.67;45.25;;;;;;;1.17;60.35;101165.68;2618216;88;21113;-67
2022/03/14 04:34:33;;;;;;;72.45;45.17;;;;;;;1.06;60.96;101173.38;2631533;88;21645;-66
2022/03/14 04:38:35;;;;;;;76.17;44.08;;;;;;;0.97;61.29;101169.72;2647443;90;21045;-66
2022/03/14 04:42:37;;;;;;;63.02;40.83;;;;;;;0.89;61.82;101173.02;2647367;90;21118;-67
2022/03/14 04:46:40;;;;;;;67.42;37.98;;;;;;;0.82;61.54;101171.00;2647323;90;21081;-67
2022/03/14 04:50:42;;;;;;;68.92;43.13;;;;;;;0.84;61.41;101180.52;2647197;90;21057;-67
2022/03/14 04:54:44;;;;;;;70.22;41.45;;;;;;;0.85;61.25;101184.02;2646696;90;21490;-67
2022/03/14 04:58:46;;;;;;;67.58;40.92;;;;;;;0.92;61.16;101186.86;2646938;90;21109;-67
2022/03/14 05:02:47;;;;;;;61.45;42.27;;;;;;;0.97;60.94;101195.45;2647067;90;21142;-67
2022/03/14 05:06:49;;;;;;;70.70;41.37;;;;;;;0.94;60.57;101203.40;2647180;90;21593;-66
2022/03/14 05:10:51;;;;;;;71.85;42.48;;;;;;;0.94;60.82;101196.84;2647140;90;21100;-66
2022/03/14 05:14:53;;;;;;;75.65;42.95;;;;;;;0.98;60.92;101203.75;2646772;90;21121;-67
2022/03/14 05:18:54;;;;;;;77.35;44.77;;;;;;;0.95;60.91;101199.87;2646761;90;21109;-67
2022/03/14 05:22:57;;;;;;;76.60;42.38;;;;;;;0.87;61.05;101202.30;2646647;90;21007;-67
2022/03/14 05:26:59;;;;;;;79.90;42.15;;;;;;;0.74;61.41;101199.14;2647014;90;21073;-66
2022/03/14 05:31:01;;;;;;;74.85;42.13;;;;;;;0.71;61.59;101215.81;2646695;90;21720;-67
2022/03/14 05:35:04;;;;;;;68.40;41.75;;;;;;;0.68;61.87;101214.13;2631485;90;21609;-66
2022/03/14 05:39:06;;;;;;;67.32;40.92;;;;;;;0.73;62.23;101215.32;2679922;88;21112;-66
2022/03/14 05:43:10;;;;;;;69.00;39.95;;;;;;;1.13;61.62;101216.00;2680082;88;21091;-66
2022/03/14 05:47:13;;;;;;;75.52;41.23;;;;;;;1.58;60.29;101214.75;2680209;88;21111;-66
2022/03/14 05:51:14;;;;;;;66.25;39.78;;;;;;;1.90;59.87;101210.75;2680417;88;21128;-66
2022/03/14 05:55:16;;;;;;;66.57;41.73;;;;;;;2.21;58.84;101209.80;2680614;88;21028;-66
2022/03/14 05:59:18;;;;;;;68.78;41.00;;;;;;;2.37;57.91;101207.08;2680847;88;21025;-66
2022/03/14 06:03:20;;;;;;;60.90;39.42;;;;;;;2.50;57.85;101210.59;2681003;88;21072;-66
2022/03/14 06:07:22;;;;;;;60.83;39.80;;;;;;;2.53;57.59;101218.37;2681004;88;21143;-66
2022/03/14 06:11:24;;;;;;;63.68;40.38;;;;;;;2.61;57.61;101217.67;2681201;88;21580;-66
2022/03/14 06:15:25;;;;;;;77.32;44.88;;;;;;;2.66;58.04;101216.22;2681118;88;21096;-65
2022/03/14 06:19:27;;;;;;;79.75;43.33;;;;;;;2.71;58.27;101223.48;2680970;88;21044;-65
2022/03/14 06:23:29;;;;;;;66.20;38.13;;;;;;;2.75;58.02;101225.52;2680678;88;21125;-65
2022/03/14 06:27:31;;;;;;;67.42;42.70;;;;;;;2.83;57.58;101232.70;2681232;88;21600;-65
2022/03/14 06:31:32;;;;;;;71.53;42.20;;;;;;;2.93;57.16;101227.52;2681047;88;21117;-65
2022/03/14 06:35:35;;;;;;;64.42;43.00;;;;;;;3.05;57.20;101224.08;2663298;88;21066;-66
2022/03/14 06:39:37;;;;;;;61.83;40.45;;;;;;;3.09;56.92;101219.10;2654969;88;21065;-65
2022/03/14 06:43:39;;;;;;;70.80;41.63;;;;;;;3.14;56.60;101223.73;2655060;89;21041;-65
2022/03/14 06:47:41;;;;;;;66.40;41.30;;;;;;;3.35;56.21;101220.80;2644473;90;21085;-65
2022/03/14 06:51:43;;;;;;;59.25;41.60;;;;;;;3.68;55.44;101227.48;2644786;90;21562;-65
2022/03/14 06:55:44;;;;;;;55.63;35.90;;;;;;;3.96;54.63;101235.18;2644995;90;21118;-65
2022/03/14 06:59:46;;;;;;;70.08;39.60;;;;;;;4.27;54.23;101233.11;2645015;90;21106;-66
2022/03/14 07:03:48;;;;;;;62.23;34.05;;;;;;;4.57;54.23;101233.63;2644911;90;21134;-66
2022/03/14 07:07:50;;;;;;;54.63;35.30;;;;;;;4.86;53.07;101237.28;2645396;90;21641;-65
2022/03/14 07:11:52;;;;;;;55.28;34.13;;;;;;;5.23;53.89;101236.16;2645896;90;21531;-65
2022/03/14 07:15:54;;;;;;;63.08;34.03;;;;;;;5.47;52.15;101233.34;2645887;90;21034;-65
2022/03/14 07:19:55;;;;;;;57.85;34.70;;;;;;;5.65;51.50;101230.31;2645864;90;21566;-65
2022/03/14 07:23:57;;;;;;;56.37;35.30;;;;;;;5.78;51.42;101236.75;2645946;90;21042;-65
2022/03/14 07:28:02;;;;;;;48.02;31.87;;;;;;;5.90;50.92;101232.67;2645302;90;21117;-66
2022/03/14 07:32:05;;;;;;;39.13;26.07;;;;;;;6.00;50.26;101227.36;2645875;90;21085;-65
2022/03/14 07:36:07;;;;;;;40.23;25.25;;;;;;;6.23;50.22;101224.56;2649200;90;21690;-66
2022/03/14 07:40:10;;;;;;;39.60;22.85;;;;;;;6.53;48.38;101227.96;2650454;90;21054;-66
2022/03/14 07:44:13;;;;;;;35.30;22.50;;;;;;;6.81;45.22;101221.27;2650562;90;21038;-65
2022/03/14 07:48:15;;;;;;;38.92;24.00;;;;;;;7.13;45.22;101212.14;2650793;90;21069;-65
2022/03/14 07:52:18;;;;;;;30.92;20.75;;;;;;;7.40;44.83;101207.63;2650822;90;21097;-65
2022/03/14 07:56:20;;;;;;;31.55;18.90;;;;;;;7.69;44.47;101207.85;2650891;90;21603;-65
2022/03/14 08:00:21;;;;;;;34.23;21.87;;;;;;;7.98;43.70;101210.20;2651191;90;21077;-65
2022/03/14 08:04:23;;;;;;;33.08;19.15;;;;;;;8.37;43.92;101208.48;2651310;89;21153;-65
2022/03/14 08:08:25;;;;;;;32.73;23.18;;;;;;;8.65;43.31;101213.52;2651448;90;21100;-65
2022/03/14 08:12:27;;;;;;;38.95;23.18;;;;;;;8.96;42.48;101211.22;2651351;90;21022;-65
2022/03/14 08:16:29;;;;;;;26.55;16.10;;;;;;;9.24;42.83;101205.57;2651462;90;21581;-65
2022/03/14 08:20:32;;;;;;;16.07;9.93;;;;;;;9.54;41.16;101209.91;2651709;90;21309;-65
2022/03/14 08:24:33;;;;;;;33.78;20.55;;;;;;;10.01;38.40;101202.97;2651702;90;21106;-65
2022/03/14 08:28:35;;;;;;;29.15;19.57;;;;;;;10.46;39.13;101204.56;2651836;90;21046;-65
2022/03/14 08:32:39;;;;;;;22.45;15.50;;;;;;;10.63;39.76;101212.27;2651992;90;21625;-65
2022/03/14 08:36:41;;;;;;;34.88;19.90;;;;;;;10.75;37.22;101207.05;2651710;89;21053;-65
2022/03/14 08:40:43;;;;;;;32.00;21.23;;;;;;;10.98;37.51;101210.81;2651831;90;21046;-65
2022/03/14 08:44:44;;;;;;;33.08;20.27;;;;;;;11.12;37.31;101208.52;2651970;90;21054;-65
2022/03/14 08:48:46;;;;;;;28.92;19.42;;;;;;;11.26;37.55;101211.07;2651788;90;21120;-65
2022/03/14 08:52:48;;;;;;;25.12;15.80;;;;;;;11.29;38.45;101210.86;2651755;90;30660;-65
2022/03/14 08:56:50;;;;;;;25.77;15.38;;;;;;;11.25;38.10;101206.70;2651911;89;21513;-65
2022/03/14 09:00:52;;;;;;;20.68;15.15;;;;;;;11.22;37.74;101213.59;2652084;90;21097;-65
2022/03/14 09:04:53;;;;;;;21.48;15.30;;;;;;;11.20;37.80;101207.98;2652020;90;21089;-65
2022/03/14 09:08:55;;;;;;;24.77;16.23;;;;;;;11.31;37.11;101192.58;2652283;90;21396;-66
2022/03/14 09:12:58;;;;;;;24.20;18.77;;;;;;;11.34;36.82;101195.89;2652040;88;21566;-65
2022/03/14 09:16:59;;;;;;;30.85;18.10;;;;;;;11.29;36.75;101194.88;2652195;90;21547;-65
2022/03/14 09:21:01;;;;;;;26.10;16.45;;;;;;;11.35;36.97;101185.60;2652259;90;21100;-65
2022/03/14 09:25:03;;;;;;;19.92;14.28;;;;;;;11.45;37.53;101176.94;2652207;90;21445;-65
2022/03/14 09:29:06;;;;;;;21.50;14.53;;;;;;;11.69;37.38;101184.99;2651856;90;21074;-65
2022/03/14 09:33:08;;;;;;;18.95;13.65;;;;;;;11.82;37.57;101180.95;2652575;90;21046;-65
2022/03/14 09:37:10;;;;;;;16.25;10.95;;;;;;;11.75;37.51;101173.04;2652024;90;21145;-65
2022/03/14 09:41:18;;;;;;;16.37;11.40;;;;;;;11.83;36.79;101178.65;2652599;90;21101;-65
2022/03/14 09:45:21;;;;;;;19.00;12.23;;;;;;;12.07;36.50;101181.37;2652455;90;21113;-65
2022/03/14 09:49:25;;;;;;;13.50;8.80;;;;;;;12.20;37.17;101183.13;2652296;90;21153;-65
2022/03/14 09:53:27;;;;;;;18.32;9.55;;;;;;;12.40;34.64;101175.81;2670296;89;21101;-65
2022/03/14 09:57:29;;;;;;;15.25;10.60;;;;;;;12.49;33.36;101182.74;2626246;90;21114;-65
2022/03/14 10:01:30;;;;;;;13.98;7.80;;;;;;;12.80;34.81;101185.25;2670317;89;21041;-65
2022/03/14 10:05:33;;;;;;;13.65;9.23;;;;;;;12.92;33.47;101182.11;2670461;89;21042;-65
2022/03/14 10:09:35;;;;;;;13.70;11.12;;;;;;;12.97;32.44;101186.63;2626188;90;21067;-64
2022/03/14 10:13:37;;;;;;;18.07;11.90;;;;;;;13.09;33.38;101186.16;2652505;90;21058;-65
2022/03/14 10:17:39;;;;;;;16.20;12.28;;;;;;;13.16;33.01;101177.15;2626224;90;21053;-65
2022/03/14 10:21:44;;;;;;;18.02;12.65;;;;;;;13.23;33.64;101181.05;2670130;89;21112;-65
2022/03/14 10:25:45;;;;;;;13.98;10.63;;;;;;;13.43;33.21;101169.30;2652551;90;21092;-65
2022/03/14 10:29:47;;;;;;;17.92;10.78;;;;;;;13.50;34.05;101172.33;2626611;90;21096;-65
2022/03/14 10:33:51;;;;;;;24.18;11.33;;;;;;;13.64;33.57;101168.54;2670526;89;21013;-65
2022/03/14 10:38:05;;;;;;;11.22;9.53;;;;;;;13.85;34.91;101169.46;2640073;89;21005;-65
2022/03/14 10:42:12;;;;;;;17.17;9.73;;;;;;;13.91;34.42;101171.27;2685481;88;21124;-65
2022/03/14 10:46:14;;;;;;;14.63;9.40;;;;;;;14.04;34.94;101184.00;2685640;88;21081;-65
2022/03/14 10:50:39;;;;;;;14.85;10.03;;;;;;;14.29;34.29;101189.98;2677498;89;21046;-65
2022/03/14 10:54:42;;;;;;;15.70;10.38;;;;;;;14.32;34.62;101192.40;2677528;89;22265;-65
2022/03/14 10:58:44;;;;;;;11.70;9.10;;;;;;;14.48;34.05;101194.66;2677488;89;21019;-65
2022/03/14 11:02:51;;;;;;;14.93;10.15;;;;;;;14.46;32.80;101193.08;2685621;88;21111;-65
2022/03/14 11:07:03;;;;;;;14.25;9.90;;;;;;;14.42;33.68;101193.81;2673922;89;21090;-65
2022/03/14 11:11:11;;;;;;;14.10;10.00;;;;;;;14.44;33.03;101191.86;2685825;88;21110;-65
2022/03/14 11:15:14;;;;;;;12.95;9.18;;;;;;;14.49;33.29;101198.17;2677495;89;21050;-66
2022/03/14 11:19:16;;;;;;;14.75;10.93;;;;;;;14.51;33.99;101193.05;2663718;88;21109;-65
2022/03/14 11:23:19;;;;;;;14.38;11.15;;;;;;;14.54;33.83;101198.15;2641115;90;21125;-65
2022/03/14 11:27:27;;;;;;;13.53;10.03;;;;;;;14.48;33.32;101195.13;2685635;88;21115;-65
2022/03/14 11:31:29;;;;;;;12.05;8.75;;;;;;;14.54;34.65;101196.81;2640996;90;21064;-65
2022/03/14 11:35:32;;;;;;;27.75;12.90;;;;;;;14.47;33.57;101210.36;2677009;88;21073;-65
2022/03/14 11:39:35;;;;;;;16.10;11.68;;;;;;;14.46;33.63;101209.14;2648020;90;21069;-65
2022/03/14 11:43:41;;;;;;;17.77;12.18;;;;;;;14.45;33.31;101206.97;2648116;90;21362;-65
2022/03/14 11:47:44;;;;;;;14.43;11.33;;;;;;;14.45;33.07;101208.30;2648044;90;21081;-65
2022/03/14 11:51:47;;;;;;;13.15;9.95;;;;;;;14.45;33.63;101206.10;2648157;90;21071;-65
2022/03/14 11:56:09;;;;;;;12.90;10.85;;;;;;;14.36;33.13;101199.22;2659036;89;21058;-65
2022/03/14 12:00:27;;;;;;;14.35;11.25;;;;;;;14.30;32.81;101198.88;2646835;90;21145;-65
2022/03/14 12:04:36;;;;;;;15.18;11.60;;;;;;;14.36;33.32;101211.27;2647653;90;21121;-65
2022/03/14 12:08:51;;;;;;;22.40;13.93;;;;;;;14.48;33.71;101212.06;2639846;90;21066;-65
2022/03/14 12:12:53;;;;;;;13.10;11.10;;;;;;;14.64;33.78;101209.41;2604810;91;21114;-65
2022/03/14 12:16:56;;;;;;;16.85;12.63;;;;;;;14.62;33.14;101206.87;2604798;91;21089;-65
2022/03/14 12:21:04;;;;;;;13.48;11.73;;;;;;;14.52;34.28;101202.78;2603070;91;21079;-65
2022/03/14 12:25:23;;;;;;;22.60;12.15;;;;;;;14.63;33.60;101197.86;2604714;91;21089;-64
2022/03/14 12:29:36;;;;;;;19.65;12.35;;;;;;;14.49;34.18;101198.17;2590535;91;21130;-65
2022/03/14 12:33:42;;;;;;;21.37;12.55;;;;;;;14.75;34.07;101192.48;2603953;90;21732;-65
2022/03/14 12:37:52;;;;;;;12.13;10.70;;;;;;;14.88;34.45;101181.56;2606090;91;21082;-65
2022/03/14 12:41:54;;;;;;;16.93;11.12;;;;;;;14.90;34.22;101157.66;2608799;91;21106;-65
2022/03/14 12:46:00;;;;;;;15.50;11.00;;;;;;;15.14;34.81;101173.95;2608885;91;21618;-65
2022/03/14 12:50:03;;;;;;;14.53;11.60;;;;;;;15.23;33.70;101167.77;2608852;91;21086;-65
2022/03/14 12:54:05;;;;;;;13.60;11.80;;;;;;;15.44;34.34;101170.05;2608892;91;21089;-65
2022/03/14 12:58:09;;;;;;;20.30;12.20;;;;;;;15.39;33.99;101171.27;2609071;91;21089;-65
2022/03/14 13:02:22;;;;;;;17.45;11.97;;;;;;;15.42;34.07;101178.20;2609342;90;21423;-65
2022/03/14 13:06:31;;;;;;;15.88;11.45;;;;;;;15.37;34.77;101181.28;2609404;90;21113;-65
2022/03/14 13:10:48;;;;;;;13.48;10.75;;;;;;;15.52;33.89;101191.64;2608865;90;21083;-65
2022/03/14 13:14:50;;;;;;;15.25;12.28;;;;;;;15.65;33.27;101180.67;2608972;91;21094;-65
2022/03/14 13:18:53;;;;;;;13.45;9.80;;;;;;;15.71;33.31;101178.77;2608881;91;22914;-65
2022/03/14 13:22:58;;;;;;;14.05;10.43;;;;;;;15.88;33.61;101182.63;2608851;91;21105;-65
2022/03/14 13:26:59;;;;;;;11.12;8.28;;;;;;;15.97;33.76;101183.67;2608983;91;21054;-65
2022/03/14 13:31:03;;;;;;;12.80;9.75;;;;;;;16.01;33.16;101186.42;2608794;91;21081;-65
2022/03/14 13:35:11;;;;;;;22.42;15.08;;;;;;;16.09;32.51;101173.65;2609131;90;21085;-65
2022/03/14 13:39:15;;;;;;;16.70;10.55;;;;;;;15.89;32.91;101171.42;2609017;91;21054;-65
2022/03/14 13:43:16;;;;;;;11.57;9.73;;;;;;;16.04;33.16;101187.48;2608645;91;21118;-65
2022/03/14 13:47:24;;;;;;;11.50;8.83;;;;;;;16.17;33.74;101191.73;2608750;91;21134;-65
2022/03/14 13:51:30;;;;;;;15.43;8.85;;;;;;;16.23;33.83;101197.88;2608716;91;21100;-66
2022/03/14 13:55:32;;;;;;;10.20;8.55;;;;;;;16.25;33.68;101203.47;2625606;90;21015;-65
2022/03/14 13:59:37;;;;;;;16.97;10.95;;;;;;;16.28;32.77;101205.00;2626226;90;21122;-66
2022/03/14 14:03:39;;;;;;;14.47;12.10;;;;;;;16.38;33.64;101203.19;2625666;90;21119;-65
2022/03/14 14:07:57;;;;;;;25.32;15.13;;;;;;;16.47;33.12;101194.77;2626026;90;21093;-65
2022/03/14 14:12:21;;;;;;;18.27;10.72;;;;;;;16.37;32.75;101190.75;2626026;90;21113;-65
2022/03/14 14:16:23;;;;;;;12.88;10.65;;;;;;;16.49;33.97;101193.27;2626466;90;21122;-66
2022/03/14 14:20:33;;;;;;;15.72;11.97;;;;;;;16.62;33.66;101201.06;2613570;89;21097;-65
2022/03/14 14:24:35;;;;;;;11.18;8.95;;;;;;;16.70;33.88;101195.32;2608989;91;21069;-65
2022/03/14 14:28:38;;;;;;;53.05;34.38;;;;;;;16.59;31.92;101199.49;2626256;90;21124;-65
2022/03/14 14:32:40;;;;;;;29.95;18.30;;;;;;;16.44;33.43;101196.89;2625991;90;21137;-66
2022/03/14 14:36:41;;;;;;;15.40;10.85;;;;;;;16.24;33.68;101195.55;2630451;89;21082;-66
2022/03/14 14:40:50;;;;;;;17.32;10.13;;;;;;;16.52;34.58;101193.02;2637147;90;21086;-66
2022/03/14 14:44:57;;;;;;;34.43;12.20;;;;;;;16.62;33.04;101188.46;2637109;90;21102;-66
2022/03/14 14:48:55;;;;;;;13.30;10.23;;;;;;;16.56;33.90;101186.36;2636267;90;21073;-66
2022/03/14 14:52:57;;;;;;;10.90;9.55;;;;;;;16.41;33.64;101184.09;2637140;90;21103;-65
2022/03/14 14:57:00;;;;;;;14.20;9.63;;;;;;;16.16;34.80;101176.11;2637160;90;21070;-65
2022/03/14 15:01:01;;;;;;;14.75;10.75;;;;;;;15.78;34.23;101192.00;2637318;90;21081;-65
2022/03/14 15:05:04;;;;;;;18.60;12.23;;;;;;;15.46;34.71;101189.52;2636905;90;21154;-65
2022/03/14 15:09:06;;;;;;;12.23;10.63;;;;;;;15.09;35.19;101194.44;2637173;90;21062;-65
2022/03/14 15:13:08;;;;;;;15.55;11.53;;;;;;;14.78;35.57;101194.89;2636712;90;21105;-66
2022/03/14 15:17:09;;;;;;;16.80;11.28;;;;;;;14.55;35.68;101215.08;2636811;90;21086;-65
2022/03/14 15:21:11;;;;;;;20.90;13.68;;;;;;;14.31;36.12;101208.09;2637141;90;21058;-66
2022/03/14 15:25:14;;;;;;;13.53;10.95;;;;;;;14.10;36.84;101220.94;2636660;89;21121;-66
2022/03/14 15:29:16;;;;;;;17.42;12.37;;;;;;;13.92;36.98;101218.43;2637082;89;21082;-65
2022/03/14 15:33:18;;;;;;;15.38;12.15;;;;;;;13.77;36.81;101222.73;2637016;90;21346;-66
2022/03/14 15:37:20;;;;;;;12.63;11.45;;;;;;;13.75;37.12;101220.64;2637054;90;21089;-66
2022/03/14 15:41:22;;;;;;;20.52;12.82;;;;;;;13.77;36.85;101224.55;2637227;90;21022;-65
2022/03/14 15:45:25;;;;;;;17.57;12.30;;;;;;;13.79;36.96;101222.12;2636947;90;21066;-66
2022/03/14 15:49:27;;;;;;;19.15;13.72;;;;;;;13.86;36.96;101218.47;2669005;89;21088;-66
2022/03/14 15:53:30;;;;;;;17.40;12.00;;;;;;;13.93;37.27;101225.00;2661662;89;21022;-65
2022/03/14 15:57:31;;;;;;;23.27;13.83;;;;;;;13.92;37.83;101230.47;2644624;89;21073;-66
2022/03/14 16:01:34;;;;;;;21.85;13.75;;;;;;;13.85;38.22;101233.64;2642204;89;21088;-66
2022/03/14 16:05:38;;;;;;;17.32;11.85;;;;;;;13.77;38.42;101241.45;2649553;89;21056;-66
2022/03/14 16:09:40;;;;;;;14.78;12.58;;;;;;;13.65;38.86;101253.11;2647779;89;21116;-66
2022/03/14 16:13:42;;;;;;;21.00;15.00;;;;;;;13.48;39.98;101254.47;2648212;89;21058;-66
2022/03/14 16:17:46;;;;;;;17.42;14.85;;;;;;;13.18;42.96;101270.54;2659669;89;21028;-66
2022/03/14 16:21:47;;;;;;;18.67;14.45;;;;;;;12.79;43.87;101276.16;2638855;90;21068;-66
2022/03/14 16:25:48;;;;;;;18.50;13.80;;;;;;;12.54;43.60;101285.98;2638311;90;21076;-66
2022/03/14 16:29:53;;;;;;;13.70;11.83;;;;;;;12.27;43.44;101287.07;2638307;90;21097;-67
2022/03/14 16:33:56;;;;;;;17.90;13.20;;;;;;;11.91;44.60;101284.73;2638131;90;21085;-66
2022/03/14 16:37:58;;;;;;;21.60;15.03;;;;;;;11.35;45.46;101301.94;2640413;88;21076;-66
2022/03/14 16:41:59;;;;;;;20.45;16.02;;;;;;;11.01;46.26;101314.42;2642243;89;21092;-67
2022/03/14 16:46:03;;;;;;;20.40;14.55;;;;;;;10.78;46.43;101320.81;2683448;88;21087;-67
2022/03/14 16:50:09;;;;;;;19.65;15.58;;;;;;;10.41;46.39;101321.89;2684055;88;21060;-67
2022/03/14 16:54:15;;;;;;;19.27;14.53;;;;;;;10.34;46.76;101320.56;2684287;88;21060;-67
2022/03/14 16:58:20;;;;;;;28.07;16.55;;;;;;;10.25;46.64;101329.98;2670409;88;21076;-66
2022/03/14 17:02:25;;;;;;;24.77;16.53;;;;;;;10.11;47.10;101332.16;2684623;88;21084;-67
2022/03/14 17:06:30;;;;;;;22.80;14.75;;;;;;;9.62;48.13;101337.39;2684053;88;21687;-68
2022/03/14 17:10:38;;;;;;;23.37;16.07;;;;;;;9.36;49.15;101346.02;2647271;88;21143;-68
2022/03/14 17:14:43;;;;;;;27.60;17.55;;;;;;;9.20;48.89;101356.67;2641220;90;21044;-67
2022/03/14 17:18:46;;;;;;;29.40;21.15;;;;;;;9.06;49.61;101357.49;2641937;90;21128;-66
2022/03/14 17:22:51;;;;;;;25.02;18.35;;;;;;;9.05;49.43;101374.36;2641832;88;21076;-67
2022/03/14 17:26:54;;;;;;;38.08;25.97;;;;;;;9.11;48.47;101381.96;2642358;90;21087;-67
2022/03/14 17:31:00;;;;;;;43.95;28.50;;;;;;;9.25;47.71;101388.27;2673809;88;21072;-68
2022/03/14 17:35:05;;;;;;;154.50;92.55;;;;;;;9.38;46.42;101397.69;2684563;88;21136;-66
2022/03/14 17:39:09;;;;;;;83.42;49.50;;;;;;;9.56;45.66;101400.58;2683914;87;21140;-67
2022/03/14 17:43:13;;;;;;;171.82;97.57;;;;;;;9.73;44.90;101408.02;2658086;88;21057;-66
2022/03/14 17:47:15;;;;;;;103.05;69.42;;;;;;;9.82;44.58;101404.78;2663172;88;21541;-66
2022/03/14 17:51:19;;;;;;;73.10;53.35;;;;;;;10.00;44.95;101408.59;2653160;88;21072;-66
2022/03/14 17:55:22;;;;;;;30.82;22.35;;;;;;;9.99;44.36;101408.22;2641910;90;21076;-66
2022/03/14 17:59:23;;;;;;;28.10;20.20;;;;;;;9.96;45.47;101413.73;2638987;88;21032;-66
2022/03/14 18:03:25;;;;;;;36.10;19.00;;;;;;;9.54;46.93;101416.25;2668992;88;21060;-67
2022/03/14 18:07:28;;;;;;;25.95;19.05;;;;;;;9.44;46.59;101422.58;2684420;88;21095;-67
2022/03/14 18:11:30;;;;;;;36.68;25.30;;;;;;;9.18;47.79;101427.59;2684844;88;21083;-66
2022/03/14 18:15:32;;;;;;;54.08;34.48;;;;;;;8.94;48.77;101426.73;2674537;88;21120;-66
2022/03/14 18:19:34;;;;;;;68.40;34.60;;;;;;;8.70;48.30;101436.47;2642384;90;21084;-67
2022/03/14 18:23:36;;;;;;;190.77;66.20;;;;;;;8.57;48.15;101432.77;2642071;90;21021;-67
2022/03/14 18:27:37;;;;;;;108.22;54.20;;;;;;;8.44;48.67;101434.72;2642199;90;21108;-67
2022/03/14 18:31:38;;;;;;;69.32;42.90;;;;;;;8.35;48.36;101434.37;2641760;90;21072;-67
2022/03/14 18:35:40;;;;;;;55.63;36.25;;;;;;;8.20;48.87;101426.78;2638314;89;21032;-67